sensor_id;sensor_type;location;lat;lon;timestamp;P1;durP1;ratioP1;P2;durP2;ratioP2
38379;SDS011;38377;47.418;18.882;2023-04-03T00:01:13;6.13;;;5.30;;
38379;SDS011;38377;47.418;18.882;2023-04-03T00:03:39;7.57;;;5.63;;
38379;SDS011;38377;47.418;18.882;2023-04-03T00:06:06;7.70;;;5.20;;
38379;SDS011;38377;47.418;18.882;2023-04-03T00:08:34;7.33;;;5.87;;
38379;SDS011;38377;47.418;18.882;2023-04-03T00:11:00;7.17;;;5.33;;
38379;SDS011;38377;47.418;18.882;2023-04-03T00:13:26;7.90;;;5.27;;
38379;SDS011;38377;47.418;18.882;2023-04-03T00:15:52;7.20;;;5.80;;
38379;SDS011;38377;47.418;18.882;2023-04-03T00:18:18;6.03;;;4.83;;
38379;SDS011;38377;47.418;18.882;2023-04-03T00:20:44;6.43;;;4.97;;
38379;SDS011;38377;47.418;18.882;2023-04-03T00:23:10;6.90;;;5.33;;
38379;SDS011;38377;47.418;18.882;2023-04-03T00:25:36;8.83;;;5.33;;
38379;SDS011;38377;47.418;18.882;2023-04-03T00:28:02;6.37;;;4.90;;
38379;SDS011;38377;47.418;18.882;2023-04-03T00:30:29;7.63;;;5.37;;
38379;SDS011;38377;47.418;18.882;2023-04-03T00:32:55;6.13;;;4.70;;
38379;SDS011;38377;47.418;18.882;2023-04-03T00:35:21;6.83;;;5.07;;
38379;SDS011;38377;47.418;18.882;2023-04-03T00:37:50;6.87;;;4.93;;
38379;SDS011;38377;47.418;18.882;2023-04-03T00:40:16;6.70;;;5.30;;
38379;SDS011;38377;47.418;18.882;2023-04-03T00:42:43;5.77;;;4.70;;
38379;SDS011;38377;47.418;18.882;2023-04-03T00:47:36;5.13;;;4.30;;
38379;SDS011;38377;47.418;18.882;2023-04-03T00:50:04;5.93;;;4.67;;
38379;SDS011;38377;47.418;18.882;2023-04-03T00:52:30;5.70;;;4.17;;
38379;SDS011;38377;47.418;18.882;2023-04-03T00:54:58;5.03;;;4.13;;
38379;SDS011;38377;47.418;18.882;2023-04-03T00:57:27;5.32;;;4.50;;
38379;SDS011;38377;47.418;18.882;2023-04-03T00:59:56;5.17;;;4.10;;
38379;SDS011;38377;47.418;18.882;2023-04-03T01:02:26;6.22;;;4.50;;
38379;SDS011;38377;47.418;18.882;2023-04-03T01:04:52;6.27;;;4.23;;
38379;SDS011;38377;47.418;18.882;2023-04-03T01:07:18;5.20;;;4.13;;
38379;SDS011;38377;47.418;18.882;2023-04-03T01:12:23;5.87;;;4.30;;
38379;SDS011;38377;47.418;18.882;2023-04-03T01:14:55;5.03;;;3.53;;
38379;SDS011;38377;47.418;18.882;2023-04-03T01:25:39;4.10;;;3.50;;
38379;SDS011;38377;47.418;18.882;2023-04-03T01:28:10;4.73;;;3.70;;
38379;SDS011;38377;47.418;18.882;2023-04-03T01:33:27;4.10;;;3.50;;
38379;SDS011;38377;47.418;18.882;2023-04-03T01:35:53;4.57;;;3.40;;
38379;SDS011;38377;47.418;18.882;2023-04-03T01:38:19;4.63;;;3.73;;
38379;SDS011;38377;47.418;18.882;2023-04-03T01:40:45;4.13;;;3.43;;
38379;SDS011;38377;47.418;18.882;2023-04-03T01:43:11;4.43;;;3.67;;
38379;SDS011;38377;47.418;18.882;2023-04-03T01:45:37;4.70;;;3.50;;
38379;SDS011;38377;47.418;18.882;2023-04-03T01:48:03;4.57;;;3.73;;
38379;SDS011;38377;47.418;18.882;2023-04-03T01:50:28;5.43;;;4.27;;
38379;SDS011;38377;47.418;18.882;2023-04-03T01:52:54;4.97;;;3.40;;
38379;SDS011;38377;47.418;18.882;2023-04-03T01:55:20;4.60;;;3.20;;
38379;SDS011;38377;47.418;18.882;2023-04-03T01:57:45;4.73;;;3.97;;
38379;SDS011;38377;47.418;18.882;2023-04-03T02:00:11;5.07;;;3.63;;
38379;SDS011;38377;47.418;18.882;2023-04-03T02:02:37;4.90;;;3.83;;
38379;SDS011;38377;47.418;18.882;2023-04-03T02:05:03;5.27;;;3.50;;
38379;SDS011;38377;47.418;18.882;2023-04-03T02:07:29;5.17;;;3.70;;
38379;SDS011;38377;47.418;18.882;2023-04-03T02:09:55;4.57;;;3.50;;
38379;SDS011;38377;47.418;18.882;2023-04-03T02:12:21;5.13;;;4.03;;
38379;SDS011;38377;47.418;18.882;2023-04-03T02:14:46;5.23;;;4.17;;
38379;SDS011;38377;47.418;18.882;2023-04-03T02:17:12;5.40;;;4.43;;
38379;SDS011;38377;47.418;18.882;2023-04-03T02:19:38;4.43;;;3.80;;
38379;SDS011;38377;47.418;18.882;2023-04-03T02:22:03;5.07;;;4.30;;
38379;SDS011;38377;47.418;18.882;2023-04-03T02:24:30;5.00;;;4.33;;
38379;SDS011;38377;47.418;18.882;2023-04-03T02:26:56;5.67;;;4.37;;
38379;SDS011;38377;47.418;18.882;2023-04-03T02:29:22;5.47;;;4.30;;
38379;SDS011;38377;47.418;18.882;2023-04-03T02:31:48;5.40;;;3.83;;
38379;SDS011;38377;47.418;18.882;2023-04-03T02:34:14;7.30;;;4.90;;
38379;SDS011;38377;47.418;18.882;2023-04-03T02:36:40;5.63;;;4.07;;
38379;SDS011;38377;47.418;18.882;2023-04-03T02:39:06;6.50;;;4.63;;
38379;SDS011;38377;47.418;18.882;2023-04-03T02:41:31;7.77;;;4.80;;
38379;SDS011;38377;47.418;18.882;2023-04-03T02:44:04;5.87;;;4.87;;
38379;SDS011;38377;47.418;18.882;2023-04-03T02:46:32;5.10;;;4.33;;
38379;SDS011;38377;47.418;18.882;2023-04-03T02:48:58;5.17;;;4.03;;
38379;SDS011;38377;47.418;18.882;2023-04-03T02:51:24;5.37;;;4.40;;
38379;SDS011;38377;47.418;18.882;2023-04-03T02:53:50;5.43;;;4.17;;
38379;SDS011;38377;47.418;18.882;2023-04-03T02:56:16;7.07;;;5.60;;
38379;SDS011;38377;47.418;18.882;2023-04-03T02:58:43;5.67;;;4.77;;
38379;SDS011;38377;47.418;18.882;2023-04-03T03:01:10;6.17;;;4.63;;
38379;SDS011;38377;47.418;18.882;2023-04-03T03:03:35;5.73;;;4.30;;
38379;SDS011;38377;47.418;18.882;2023-04-03T03:06:02;6.33;;;4.80;;
38379;SDS011;38377;47.418;18.882;2023-04-03T03:08:34;6.60;;;4.77;;
38379;SDS011;38377;47.418;18.882;2023-04-03T03:11:00;5.47;;;4.30;;
38379;SDS011;38377;47.418;18.882;2023-04-03T03:13:26;7.40;;;5.27;;
38379;SDS011;38377;47.418;18.882;2023-04-03T03:15:52;5.90;;;4.87;;
38379;SDS011;38377;47.418;18.882;2023-04-03T03:18:18;6.03;;;4.80;;
38379;SDS011;38377;47.418;18.882;2023-04-03T03:20:44;8.60;;;5.00;;
38379;SDS011;38377;47.418;18.882;2023-04-03T03:23:10;6.70;;;4.50;;
38379;SDS011;38377;47.418;18.882;2023-04-03T03:25:39;5.20;;;3.90;;
38379;SDS011;38377;47.418;18.882;2023-04-03T03:28:05;6.43;;;4.30;;
38379;SDS011;38377;47.418;18.882;2023-04-03T03:30:31;6.33;;;4.60;;
38379;SDS011;38377;47.418;18.882;2023-04-03T03:32:57;5.97;;;4.93;;
38379;SDS011;38377;47.418;18.882;2023-04-03T03:35:22;5.80;;;4.80;;
38379;SDS011;38377;47.418;18.882;2023-04-03T03:37:48;6.00;;;5.17;;
38379;SDS011;38377;47.418;18.882;2023-04-03T03:40:14;6.70;;;4.77;;
38379;SDS011;38377;47.418;18.882;2023-04-03T03:42:40;6.33;;;4.87;;
38379;SDS011;38377;47.418;18.882;2023-04-03T03:45:06;5.50;;;4.40;;
38379;SDS011;38377;47.418;18.882;2023-04-03T03:47:32;6.63;;;4.40;;
38379;SDS011;38377;47.418;18.882;2023-04-03T03:49:58;6.87;;;4.73;;
38379;SDS011;38377;47.418;18.882;2023-04-03T03:52:24;7.07;;;5.00;;
38379;SDS011;38377;47.418;18.882;2023-04-03T03:54:50;5.17;;;4.30;;
38379;SDS011;38377;47.418;18.882;2023-04-03T03:57:16;5.33;;;4.30;;
38379;SDS011;38377;47.418;18.882;2023-04-03T03:59:41;6.10;;;4.70;;
38379;SDS011;38377;47.418;18.882;2023-04-03T04:02:08;6.03;;;4.50;;
38379;SDS011;38377;47.418;18.882;2023-04-03T04:04:35;5.80;;;4.53;;
38379;SDS011;38377;47.418;18.882;2023-04-03T04:07:02;6.70;;;4.77;;
38379;SDS011;38377;47.418;18.882;2023-04-03T04:09:28;5.77;;;4.70;;
38379;SDS011;38377;47.418;18.882;2023-04-03T04:11:54;8.50;;;4.83;;
38379;SDS011;38377;47.418;18.882;2023-04-03T04:14:20;5.73;;;4.60;;
38379;SDS011;38377;47.418;18.882;2023-04-03T04:16:46;6.37;;;5.10;;
38379;SDS011;38377;47.418;18.882;2023-04-03T04:19:12;6.57;;;4.50;;
38379;SDS011;38377;47.418;18.882;2023-04-03T04:21:38;6.10;;;4.77;;
38379;SDS011;38377;47.418;18.882;2023-04-03T04:24:05;8.90;;;6.33;;
38379;SDS011;38377;47.418;18.882;2023-04-03T04:26:31;7.97;;;5.77;;
38379;SDS011;38377;47.418;18.882;2023-04-03T04:28:56;7.93;;;5.87;;
38379;SDS011;38377;47.418;18.882;2023-04-03T04:31:22;7.07;;;4.73;;
38379;SDS011;38377;47.418;18.882;2023-04-03T04:33:48;8.13;;;5.70;;
38379;SDS011;38377;47.418;18.882;2023-04-03T04:36:13;11.70;;;7.70;;
38379;SDS011;38377;47.418;18.882;2023-04-03T04:38:40;12.93;;;7.97;;
38379;SDS011;38377;47.418;18.882;2023-04-03T04:41:06;6.50;;;5.27;;
38379;SDS011;38377;47.418;18.882;2023-04-03T04:43:32;6.63;;;5.20;;
38379;SDS011;38377;47.418;18.882;2023-04-03T04:46:05;6.73;;;5.13;;
38379;SDS011;38377;47.418;18.882;2023-04-03T04:48:33;5.83;;;4.73;;
38379;SDS011;38377;47.418;18.882;2023-04-03T04:50:59;6.30;;;5.00;;
38379;SDS011;38377;47.418;18.882;2023-04-03T04:53:26;6.13;;;4.67;;
38379;SDS011;38377;47.418;18.882;2023-04-03T04:55:52;7.50;;;4.90;;
38379;SDS011;38377;47.418;18.882;2023-04-03T04:58:18;5.60;;;4.43;;
38379;SDS011;38377;47.418;18.882;2023-04-03T05:00:44;6.10;;;4.60;;
38379;SDS011;38377;47.418;18.882;2023-04-03T05:03:10;6.20;;;4.17;;
38379;SDS011;38377;47.418;18.882;2023-04-03T05:05:36;6.43;;;5.00;;
38379;SDS011;38377;47.418;18.882;2023-04-03T05:08:02;5.87;;;4.77;;
38379;SDS011;38377;47.418;18.882;2023-04-03T05:10:28;8.27;;;5.87;;
38379;SDS011;38377;47.418;18.882;2023-04-03T05:12:54;8.17;;;6.57;;
38379;SDS011;38377;47.418;18.882;2023-04-03T05:17:49;8.60;;;6.57;;
38379;SDS011;38377;47.418;18.882;2023-04-03T05:20:16;6.73;;;5.17;;
38379;SDS011;38377;47.418;18.882;2023-04-03T05:22:41;5.57;;;4.47;;
38379;SDS011;38377;47.418;18.882;2023-04-03T05:25:07;6.83;;;5.10;;
38379;SDS011;38377;47.418;18.882;2023-04-03T05:27:33;5.33;;;4.20;;
38379;SDS011;38377;47.418;18.882;2023-04-03T05:29:59;5.80;;;4.73;;
38379;SDS011;38377;47.418;18.882;2023-04-03T05:32:25;5.90;;;4.40;;
38379;SDS011;38377;47.418;18.882;2023-04-03T05:34:52;5.10;;;4.30;;
38379;SDS011;38377;47.418;18.882;2023-04-03T05:37:18;5.77;;;4.27;;
38379;SDS011;38377;47.418;18.882;2023-04-03T05:39:44;5.53;;;4.50;;
38379;SDS011;38377;47.418;18.882;2023-04-03T05:42:10;5.97;;;4.70;;
38379;SDS011;38377;47.418;18.882;2023-04-03T05:44:36;5.87;;;4.47;;
38379;SDS011;38377;47.418;18.882;2023-04-03T05:47:03;6.70;;;4.83;;
38379;SDS011;38377;47.418;18.882;2023-04-03T05:49:30;5.33;;;4.20;;
38379;SDS011;38377;47.418;18.882;2023-04-03T05:51:58;5.37;;;3.83;;
38379;SDS011;38377;47.418;18.882;2023-04-03T05:54:27;4.87;;;4.17;;
38379;SDS011;38377;47.418;18.882;2023-04-03T05:56:54;8.45;;;5.10;;
38379;SDS011;38377;47.418;18.882;2023-04-03T05:59:20;5.83;;;4.87;;
38379;SDS011;38377;47.418;18.882;2023-04-03T06:01:46;5.90;;;3.90;;
38379;SDS011;38377;47.418;18.882;2023-04-03T06:04:13;5.20;;;4.30;;
38379;SDS011;38377;47.418;18.882;2023-04-03T06:06:46;6.10;;;4.00;;
38379;SDS011;38377;47.418;18.882;2023-04-03T06:09:29;4.10;;;3.37;;
38379;SDS011;38377;47.418;18.882;2023-04-03T06:11:55;4.83;;;4.20;;
38379;SDS011;38377;47.418;18.882;2023-04-03T06:14:24;4.97;;;4.40;;
38379;SDS011;38377;47.418;18.882;2023-04-03T06:16:52;5.17;;;4.17;;
38379;SDS011;38377;47.418;18.882;2023-04-03T06:19:19;4.77;;;3.90;;
38379;SDS011;38377;47.418;18.882;2023-04-03T06:21:45;4.40;;;3.50;;
38379;SDS011;38377;47.418;18.882;2023-04-03T06:24:12;5.23;;;3.73;;
38379;SDS011;38377;47.418;18.882;2023-04-03T06:26:40;5.07;;;3.78;;
38379;SDS011;38377;47.418;18.882;2023-04-03T06:29:07;4.63;;;3.70;;
38379;SDS011;38377;47.418;18.882;2023-04-03T06:31:33;4.90;;;3.80;;
38379;SDS011;38377;47.418;18.882;2023-04-03T06:33:59;5.67;;;3.60;;
38379;SDS011;38377;47.418;18.882;2023-04-03T06:36:25;6.53;;;3.57;;
38379;SDS011;38377;47.418;18.882;2023-04-03T06:38:51;5.23;;;3.50;;
38379;SDS011;38377;47.418;18.882;2023-04-03T06:41:17;4.55;;;3.58;;
38379;SDS011;38377;47.418;18.882;2023-04-03T06:43:43;3.93;;;3.53;;
38379;SDS011;38377;47.418;18.882;2023-04-03T06:46:16;4.43;;;3.65;;
38379;SDS011;38377;47.418;18.882;2023-04-03T06:48:45;5.70;;;3.42;;
38379;SDS011;38377;47.418;18.882;2023-04-03T06:51:16;4.10;;;3.53;;
38379;SDS011;38377;47.418;18.882;2023-04-03T06:53:42;3.90;;;3.60;;
38379;SDS011;38377;47.418;18.882;2023-04-03T06:56:08;4.82;;;3.60;;
38379;SDS011;38377;47.418;18.882;2023-04-03T06:58:33;3.67;;;3.22;;
38379;SDS011;38377;47.418;18.882;2023-04-03T07:00:59;7.68;;;3.60;;
38379;SDS011;38377;47.418;18.882;2023-04-03T07:03:25;4.63;;;3.37;;
38379;SDS011;38377;47.418;18.882;2023-04-03T07:05:50;5.50;;;4.00;;
38379;SDS011;38377;47.418;18.882;2023-04-03T07:08:16;4.77;;;3.63;;
38379;SDS011;38377;47.418;18.882;2023-04-03T07:10:42;5.28;;;3.65;;
38379;SDS011;38377;47.418;18.882;2023-04-03T07:13:07;6.13;;;3.30;;
38379;SDS011;38377;47.418;18.882;2023-04-03T07:15:33;5.10;;;3.90;;
38379;SDS011;38377;47.418;18.882;2023-04-03T07:17:59;5.20;;;3.58;;
38379;SDS011;38377;47.418;18.882;2023-04-03T07:20:24;5.38;;;3.40;;
38379;SDS011;38377;47.418;18.882;2023-04-03T07:22:50;5.47;;;3.30;;
38379;SDS011;38377;47.418;18.882;2023-04-03T07:25:16;4.60;;;3.22;;
38379;SDS011;38377;47.418;18.882;2023-04-03T07:27:42;4.28;;;3.20;;
38379;SDS011;38377;47.418;18.882;2023-04-03T07:30:08;3.70;;;2.83;;
38379;SDS011;38377;47.418;18.882;2023-04-03T07:32:34;2.92;;;2.38;;
38379;SDS011;38377;47.418;18.882;2023-04-03T07:35:00;4.80;;;2.75;;
38379;SDS011;38377;47.418;18.882;2023-04-03T07:37:25;3.35;;;2.67;;
38379;SDS011;38377;47.418;18.882;2023-04-03T07:39:51;2.85;;;2.50;;
38379;SDS011;38377;47.418;18.882;2023-04-03T07:42:17;3.85;;;2.97;;
38379;SDS011;38377;47.418;18.882;2023-04-03T07:44:43;2.65;;;2.05;;
38379;SDS011;38377;47.418;18.882;2023-04-03T07:47:08;2.60;;;1.70;;
38379;SDS011;38377;47.418;18.882;2023-04-03T07:49:35;3.08;;;2.25;;
38379;SDS011;38377;47.418;18.882;2023-04-03T07:52:03;2.80;;;2.10;;
38379;SDS011;38377;47.418;18.882;2023-04-03T07:54:29;3.53;;;2.33;;
38379;SDS011;38377;47.418;18.882;2023-04-03T07:56:55;2.75;;;2.10;;
38379;SDS011;38377;47.418;18.882;2023-04-03T07:59:21;2.83;;;2.55;;
38379;SDS011;38377;47.418;18.882;2023-04-03T08:01:47;3.00;;;2.13;;
38379;SDS011;38377;47.418;18.882;2023-04-03T08:04:13;2.90;;;2.10;;
38379;SDS011;38377;47.418;18.882;2023-04-03T08:06:38;3.80;;;2.28;;
38379;SDS011;38377;47.418;18.882;2023-04-03T08:09:04;3.60;;;2.15;;
38379;SDS011;38377;47.418;18.882;2023-04-03T08:11:30;2.55;;;2.22;;
38379;SDS011;38377;47.418;18.882;2023-04-03T08:13:56;2.70;;;1.65;;
38379;SDS011;38377;47.418;18.882;2023-04-03T08:16:22;2.70;;;2.00;;
38379;SDS011;38377;47.418;18.882;2023-04-03T08:18:51;2.55;;;1.80;;
38379;SDS011;38377;47.418;18.882;2023-04-03T08:21:17;4.13;;;2.72;;
38379;SDS011;38377;47.418;18.882;2023-04-03T08:23:43;3.15;;;2.40;;
38379;SDS011;38377;47.418;18.882;2023-04-03T08:26:13;2.00;;;1.70;;
38379;SDS011;38377;47.418;18.882;2023-04-03T08:28:41;2.45;;;2.15;;
38379;SDS011;38377;47.418;18.882;2023-04-03T08:31:09;2.80;;;2.33;;
38379;SDS011;38377;47.418;18.882;2023-04-03T08:33:37;2.30;;;1.80;;
38379;SDS011;38377;47.418;18.882;2023-04-03T08:36:04;3.00;;;1.88;;
38379;SDS011;38377;47.418;18.882;2023-04-03T08:38:31;2.15;;;1.75;;
38379;SDS011;38377;47.418;18.882;2023-04-03T08:41:02;2.42;;;1.90;;
38379;SDS011;38377;47.418;18.882;2023-04-03T08:49:17;2.35;;;1.80;;
38379;SDS011;38377;47.418;18.882;2023-04-03T08:51:53;1.20;;;1.10;;
38379;SDS011;38377;47.418;18.882;2023-04-03T08:54:31;1.80;;;1.40;;
38379;SDS011;38377;47.418;18.882;2023-04-03T08:57:00;2.72;;;1.67;;
38379;SDS011;38377;47.418;18.882;2023-04-03T08:59:29;2.45;;;1.73;;
38379;SDS011;38377;47.418;18.882;2023-04-03T09:01:59;3.13;;;1.77;;
38379;SDS011;38377;47.418;18.882;2023-04-03T09:04:30;3.97;;;2.08;;
38379;SDS011;38377;47.418;18.882;2023-04-03T09:06:59;2.13;;;1.60;;
38379;SDS011;38377;47.418;18.882;2023-04-03T09:14:57;2.08;;;1.80;;
38379;SDS011;38377;47.418;18.882;2023-04-03T09:25:50;3.45;;;1.70;;
38379;SDS011;38377;47.418;18.882;2023-04-03T09:28:21;4.32;;;2.55;;
38379;SDS011;38377;47.418;18.882;2023-04-03T09:30:47;1.40;;;0.80;;
38379;SDS011;38377;47.418;18.882;2023-04-03T09:33:12;2.65;;;1.50;;
38379;SDS011;38377;47.418;18.882;2023-04-03T09:35:40;2.20;;;1.25;;
38379;SDS011;38377;47.418;18.882;2023-04-03T09:40:36;1.80;;;1.17;;
38379;SDS011;38377;47.418;18.882;2023-04-03T09:43:19;1.48;;;0.95;;
38379;SDS011;38377;47.418;18.882;2023-04-03T09:45:48;2.53;;;1.27;;
38379;SDS011;38377;47.418;18.882;2023-04-03T09:56:24;1.23;;;0.85;;
38379;SDS011;38377;47.418;18.882;2023-04-03T10:01:30;1.10;;;1.00;;
38379;SDS011;38377;47.418;18.882;2023-04-03T10:06:41;1.83;;;0.88;;
38379;SDS011;38377;47.418;18.882;2023-04-03T10:09:16;1.58;;;1.20;;
38379;SDS011;38377;47.418;18.882;2023-04-03T10:14:35;2.08;;;1.30;;
38379;SDS011;38377;47.418;18.882;2023-04-03T10:20:48;2.58;;;0.80;;
38379;SDS011;38377;47.418;18.882;2023-04-03T10:28:20;2.22;;;1.50;;
38379;SDS011;38377;47.418;18.882;2023-04-03T10:36:44;1.17;;;1.08;;
38379;SDS011;38377;47.418;18.882;2023-04-03T10:42:42;2.03;;;1.75;;
38379;SDS011;38377;47.418;18.882;2023-04-03T10:50:49;1.25;;;1.00;;
38379;SDS011;38377;47.418;18.882;2023-04-03T10:58:51;3.05;;;2.60;;
38379;SDS011;38377;47.418;18.882;2023-04-03T11:01:24;2.25;;;1.50;;
38379;SDS011;38377;47.418;18.882;2023-04-03T11:03:59;1.63;;;1.40;;
38379;SDS011;38377;47.418;18.882;2023-04-03T11:06:36;1.20;;;0.73;;
38379;SDS011;38377;47.418;18.882;2023-04-03T11:09:15;0.98;;;0.80;;
38379;SDS011;38377;47.418;18.882;2023-04-03T11:12:13;1.63;;;0.90;;
38379;SDS011;38377;47.418;18.882;2023-04-03T11:14:50;1.73;;;1.00;;
38379;SDS011;38377;47.418;18.882;2023-04-03T11:22:32;1.88;;;1.25;;
38379;SDS011;38377;47.418;18.882;2023-04-03T11:25:24;1.15;;;1.00;;
38379;SDS011;38377;47.418;18.882;2023-04-03T11:27:51;1.48;;;1.08;;
38379;SDS011;38377;47.418;18.882;2023-04-03T11:36:00;3.00;;;2.22;;
38379;SDS011;38377;47.418;18.882;2023-04-03T11:38:43;3.10;;;2.80;;
38379;SDS011;38377;47.418;18.882;2023-04-03T11:41:12;2.15;;;1.58;;
38379;SDS011;38377;47.418;18.882;2023-04-03T11:43:40;4.68;;;1.13;;
38379;SDS011;38377;47.418;18.882;2023-04-03T11:46:19;1.30;;;0.70;;
38379;SDS011;38377;47.418;18.882;2023-04-03T11:48:46;1.63;;;1.20;;
38379;SDS011;38377;47.418;18.882;2023-04-03T11:53:42;1.05;;;0.80;;
38379;SDS011;38377;47.418;18.882;2023-04-03T11:56:26;1.52;;;0.90;;
38379;SDS011;38377;47.418;18.882;2023-04-03T12:04:10;2.70;;;1.35;;
38379;SDS011;38377;47.418;18.882;2023-04-03T12:09:21;4.38;;;1.85;;
38379;SDS011;38377;47.418;18.882;2023-04-03T12:11:49;1.80;;;1.38;;
38379;SDS011;38377;47.418;18.882;2023-04-03T12:14:16;1.90;;;1.20;;
38379;SDS011;38377;47.418;18.882;2023-04-03T12:16:46;3.17;;;1.55;;
38379;SDS011;38377;47.418;18.882;2023-04-03T12:29:27;2.38;;;1.70;;
38379;SDS011;38377;47.418;18.882;2023-04-03T12:45:23;3.20;;;1.77;;
38379;SDS011;38377;47.418;18.882;2023-04-03T12:47:54;4.72;;;2.50;;
38379;SDS011;38377;47.418;18.882;2023-04-03T12:50:25;6.30;;;3.15;;
38379;SDS011;38377;47.418;18.882;2023-04-03T12:55:29;3.67;;;1.55;;
38379;SDS011;38377;47.418;18.882;2023-04-03T12:57:55;2.15;;;1.10;;
38379;SDS011;38377;47.418;18.882;2023-04-03T13:02:57;2.20;;;0.85;;
38379;SDS011;38377;47.418;18.882;2023-04-03T13:05:23;3.00;;;1.20;;
38379;SDS011;38377;47.418;18.882;2023-04-03T13:07:51;1.55;;;1.08;;
38379;SDS011;38377;47.418;18.882;2023-04-03T13:10:22;1.83;;;1.02;;
38379;SDS011;38377;47.418;18.882;2023-04-03T13:12:56;8.07;;;5.68;;
38379;SDS011;38377;47.418;18.882;2023-04-03T13:15:39;4.55;;;3.10;;
38379;SDS011;38377;47.418;18.882;2023-04-03T13:18:24;9.38;;;2.00;;
38379;SDS011;38377;47.418;18.882;2023-04-03T13:20:57;2.85;;;1.70;;
38379;SDS011;38377;47.418;18.882;2023-04-03T13:23:39;2.90;;;1.42;;
38379;SDS011;38377;47.418;18.882;2023-04-03T13:26:07;4.03;;;1.90;;
38379;SDS011;38377;47.418;18.882;2023-04-03T13:28:34;2.25;;;1.60;;
38379;SDS011;38377;47.418;18.882;2023-04-03T13:33:43;2.70;;;1.88;;
38379;SDS011;38377;47.418;18.882;2023-04-03T13:36:31;3.08;;;1.60;;
38379;SDS011;38377;47.418;18.882;2023-04-03T13:41:36;6.30;;;3.78;;
38379;SDS011;38377;47.418;18.882;2023-04-03T13:50:13;2.20;;;1.95;;
38379;SDS011;38377;47.418;18.882;2023-04-03T13:55:16;9.77;;;6.70;;
38379;SDS011;38377;47.418;18.882;2023-04-03T13:58:20;5.10;;;2.97;;
38379;SDS011;38377;47.418;18.882;2023-04-03T14:00:37;8.75;;;5.22;;
38379;SDS011;38377;47.418;18.882;2023-04-03T14:03:25;3.65;;;2.22;;
38379;SDS011;38377;47.418;18.882;2023-04-03T14:06:13;3.78;;;2.90;;
38379;SDS011;38377;47.418;18.882;2023-04-03T14:08:41;3.80;;;2.53;;
38379;SDS011;38377;47.418;18.882;2023-04-03T14:11:12;2.78;;;2.38;;
38379;SDS011;38377;47.418;18.882;2023-04-03T14:13:44;5.13;;;3.47;;
38379;SDS011;38377;47.418;18.882;2023-04-03T14:16:21;6.32;;;3.42;;
38379;SDS011;38377;47.418;18.882;2023-04-03T14:18:48;4.50;;;2.90;;
38379;SDS011;38377;47.418;18.882;2023-04-03T14:21:16;4.60;;;3.75;;
38379;SDS011;38377;47.418;18.882;2023-04-03T14:23:43;4.93;;;3.55;;
38379;SDS011;38377;47.418;18.882;2023-04-03T14:26:14;8.43;;;2.90;;
38379;SDS011;38377;47.418;18.882;2023-04-03T14:28:46;3.00;;;2.45;;
38379;SDS011;38377;47.418;18.882;2023-04-03T14:31:14;3.88;;;3.17;;
38379;SDS011;38377;47.418;18.882;2023-04-03T14:33:41;5.30;;;3.05;;
38379;SDS011;38377;47.418;18.882;2023-04-03T14:36:18;3.92;;;2.50;;
38379;SDS011;38377;47.418;18.882;2023-04-03T14:38:47;4.65;;;2.53;;
38379;SDS011;38377;47.418;18.882;2023-04-03T14:41:14;4.60;;;3.10;;
38379;SDS011;38377;47.418;18.882;2023-04-03T14:43:42;5.95;;;3.20;;
38379;SDS011;38377;47.418;18.882;2023-04-03T14:46:28;4.82;;;2.50;;
38379;SDS011;38377;47.418;18.882;2023-04-03T14:49:00;6.30;;;2.80;;
38379;SDS011;38377;47.418;18.882;2023-04-03T14:51:26;4.03;;;3.40;;
38379;SDS011;38377;47.418;18.882;2023-04-03T14:53:52;6.65;;;3.22;;
38379;SDS011;38377;47.418;18.882;2023-04-03T14:56:25;3.88;;;3.38;;
38379;SDS011;38377;47.418;18.882;2023-04-03T14:58:56;5.95;;;3.78;;
38379;SDS011;38377;47.418;18.882;2023-04-03T15:01:24;3.72;;;2.13;;
38379;SDS011;38377;47.418;18.882;2023-04-03T15:03:50;4.30;;;2.05;;
38379;SDS011;38377;47.418;18.882;2023-04-03T15:06:16;8.05;;;2.80;;
38379;SDS011;38377;47.418;18.882;2023-04-03T15:08:42;4.93;;;2.35;;
38379;SDS011;38377;47.418;18.882;2023-04-03T15:11:10;2.95;;;2.22;;
38379;SDS011;38377;47.418;18.882;2023-04-03T15:13:37;2.88;;;2.20;;
38379;SDS011;38377;47.418;18.882;2023-04-03T15:16:04;3.92;;;2.58;;
38379;SDS011;38377;47.418;18.882;2023-04-03T15:18:31;4.82;;;3.03;;
38379;SDS011;38377;47.418;18.882;2023-04-03T15:21:02;4.50;;;2.55;;
38379;SDS011;38377;47.418;18.882;2023-04-03T15:23:29;3.13;;;2.50;;
38379;SDS011;38377;47.418;18.882;2023-04-03T15:25:55;3.10;;;2.20;;
38379;SDS011;38377;47.418;18.882;2023-04-03T15:30:52;3.55;;;2.63;;
38379;SDS011;38377;47.418;18.882;2023-04-03T15:33:18;4.95;;;2.28;;
38379;SDS011;38377;47.418;18.882;2023-04-03T15:35:44;3.83;;;2.85;;
38379;SDS011;38377;47.418;18.882;2023-04-03T15:38:10;4.38;;;3.00;;
38379;SDS011;38377;47.418;18.882;2023-04-03T15:40:35;3.30;;;2.53;;
38379;SDS011;38377;47.418;18.882;2023-04-03T15:43:01;5.93;;;2.25;;
38379;SDS011;38377;47.418;18.882;2023-04-03T15:45:28;3.40;;;1.88;;
38379;SDS011;38377;47.418;18.882;2023-04-03T15:47:55;3.58;;;1.90;;
38379;SDS011;38377;47.418;18.882;2023-04-03T15:50:22;2.28;;;1.60;;
38379;SDS011;38377;47.418;18.882;2023-04-03T15:52:49;1.85;;;1.40;;
38379;SDS011;38377;47.418;18.882;2023-04-03T15:55:22;7.65;;;2.17;;
38379;SDS011;38377;47.418;18.882;2023-04-03T15:57:48;2.95;;;2.00;;
38379;SDS011;38377;47.418;18.882;2023-04-03T16:00:14;6.50;;;3.45;;
38379;SDS011;38377;47.418;18.882;2023-04-03T16:02:41;3.30;;;2.30;;
38379;SDS011;38377;47.418;18.882;2023-04-03T16:05:09;6.43;;;3.40;;
38379;SDS011;38377;47.418;18.882;2023-04-03T16:07:36;2.95;;;1.77;;
38379;SDS011;38377;47.418;18.882;2023-04-03T16:10:04;3.47;;;2.22;;
38379;SDS011;38377;47.418;18.882;2023-04-03T16:12:30;6.82;;;3.28;;
38379;SDS011;38377;47.418;18.882;2023-04-03T16:14:56;2.78;;;1.88;;
38379;SDS011;38377;47.418;18.882;2023-04-03T16:17:22;2.88;;;2.30;;
38379;SDS011;38377;47.418;18.882;2023-04-03T16:19:48;8.80;;;4.35;;
38379;SDS011;38377;47.418;18.882;2023-04-03T16:22:13;4.18;;;2.17;;
38379;SDS011;38377;47.418;18.882;2023-04-03T16:24:39;5.25;;;2.33;;
38379;SDS011;38377;47.418;18.882;2023-04-03T16:27:05;10.00;;;2.40;;
38379;SDS011;38377;47.418;18.882;2023-04-03T16:29:31;3.80;;;2.78;;
38379;SDS011;38377;47.418;18.882;2023-04-03T16:31:57;3.55;;;2.35;;
38379;SDS011;38377;47.418;18.882;2023-04-03T16:34:24;4.28;;;2.55;;
38379;SDS011;38377;47.418;18.882;2023-04-03T16:36:51;4.30;;;2.42;;
38379;SDS011;38377;47.418;18.882;2023-04-03T16:39:20;4.95;;;2.70;;
38379;SDS011;38377;47.418;18.882;2023-04-03T16:41:45;6.63;;;2.60;;
38379;SDS011;38377;47.418;18.882;2023-04-03T16:44:11;3.35;;;1.85;;
38379;SDS011;38377;47.418;18.882;2023-04-03T16:46:37;4.03;;;2.60;;
38379;SDS011;38377;47.418;18.882;2023-04-03T16:49:02;3.55;;;2.55;;
38379;SDS011;38377;47.418;18.882;2023-04-03T16:51:28;4.75;;;2.78;;
38379;SDS011;38377;47.418;18.882;2023-04-03T16:53:55;4.68;;;2.58;;
38379;SDS011;38377;47.418;18.882;2023-04-03T16:56:21;6.65;;;3.30;;
38379;SDS011;38377;47.418;18.882;2023-04-03T16:58:47;6.45;;;3.78;;
38379;SDS011;38377;47.418;18.882;2023-04-03T17:01:14;5.63;;;2.65;;
38379;SDS011;38377;47.418;18.882;2023-04-03T17:03:41;4.45;;;2.55;;
38379;SDS011;38377;47.418;18.882;2023-04-03T17:06:07;3.75;;;2.38;;
38379;SDS011;38377;47.418;18.882;2023-04-03T17:08:40;4.07;;;2.08;;
38379;SDS011;38377;47.418;18.882;2023-04-03T17:11:10;3.85;;;2.65;;